Time;durP1;ratioP1;P1;durP2;ratioP2;P2;SDS_P1;SDS_P2;PMS_P1;PMS_P2;Temp;Humidity;BMP_temperature;BMP_pressure;BME280_temperature;BME280_humidity;BME280_pressure;Samples;Min_cycle;Max_cycle;Signal;HPM_P1;HPM_P2
2021/08/12 00:00:57;;;;;;;6.37;4.70;;;19.80;77.70;;;;;;4925705;29;20483;-49
2021/08/12 00:03:24;;;;;;;7.23;5.30;;;19.80;77.70;;;;;;4896626;29;20464;-49
2021/08/12 00:05:51;;;;;;;6.90;4.97;;;19.80;77.70;;;;;;4930182;29;20467;-49
2021/08/12 00:08:18;;;;;;;5.70;5.00;;;19.80;77.70;;;;;;4916770;29;20483;-48
2021/08/12 00:10:50;;;;;;;4.33;3.90;;;19.70;77.80;;;;;;4899019;29;20464;-49
2021/08/12 00:13:18;;;;;;;7.30;5.20;;;19.70;77.90;;;;;;4916896;29;21031;-49
2021/08/12 00:15:45;;;;;;;6.57;4.40;;;19.70;78.00;;;;;;4915433;29;20460;-49
2021/08/12 00:18:13;;;;;;;5.63;4.20;;;19.70;78.20;;;;;;4932970;29;20467;-49
2021/08/12 00:20:39;;;;;;;6.20;4.60;;;19.60;78.20;;;;;;4934328;29;20460;-49
2021/08/12 00:23:06;;;;;;;7.50;6.00;;;19.60;78.30;;;;;;4929052;29;20473;-49
2021/08/12 00:25:33;;;;;;;6.90;5.30;;;19.60;78.40;;;;;;4915217;29;20468;-49
2021/08/12 00:28:00;;;;;;;5.40;4.73;;;19.50;78.50;;;;;;4933716;29;20487;-49
2021/08/12 00:30:27;;;;;;;6.17;4.63;;;19.50;78.50;;;;;;4929033;29;20978;-49
2021/08/12 00:32:54;;;;;;;5.80;5.03;;;19.50;78.50;;;;;;4932063;29;20486;-49
2021/08/12 00:35:21;;;;;;;6.20;4.90;;;19.50;78.50;;;;;;4929502;29;20463;-49
2021/08/12 00:37:48;;;;;;;6.53;5.50;;;19.50;78.50;;;;;;4930449;29;20842;-49
2021/08/12 00:40:17;;;;;;;5.00;4.50;;;19.40;78.50;;;;;;4927281;29;20461;-49
2021/08/12 00:42:44;;;;;;;10.00;5.83;;;19.40;78.50;;;;;;4932455;29;20464;-49
2021/08/12 00:45:11;;;;;;;6.10;5.47;;;19.40;78.60;;;;;;4927554;29;20463;-48
2021/08/12 00:47:38;;;;;;;6.20;4.53;;;19.30;78.60;;;;;;4929500;29;20919;-49
2021/08/12 00:50:05;;;;;;;5.90;5.23;;;19.30;78.70;;;;;;4931445;29;20468;-49
2021/08/12 00:52:32;;;;;;;7.57;5.17;;;19.30;78.70;;;;;;4930881;29;20824;-49
2021/08/12 00:55:00;;;;;;;7.37;5.00;;;19.30;78.80;;;;;;4931430;29;20456;-49
2021/08/12 00:57:28;;;;;;;11.03;5.47;;;19.20;78.90;;;;;;4925935;29;20470;-49
2021/08/12 00:59:55;;;;;;;6.83;5.33;;;19.20;78.90;;;;;;4932237;29;20490;-49
2021/08/12 01:02:22;;;;;;;5.83;5.23;;;19.20;78.90;;;;;;4928726;29;21933;-49
2021/08/12 01:04:50;;;;;;;7.57;5.70;;;19.20;78.90;;;;;;4916721;29;20464;-49
2021/08/12 01:07:38;;;;;;;6.87;5.23;;;19.20;79.00;;;;;;4930965;29;20627;-49
2021/08/12 01:10:18;;;;;;;8.00;4.90;;;19.10;79.20;;;;;;4911107;29;20558;-49
2021/08/12 01:13:00;;;;;;;6.10;5.50;;;19.10;79.30;;;;;;4929846;29;20991;-49
2021/08/12 01:15:39;;;;;;;8.53;6.03;;;19.10;79.20;;;;;;4929467;29;20470;-49
2021/08/12 01:18:30;;;;;;;5.93;5.33;;;19.10;79.00;;;;;;4918571;29;20479;-49
2021/08/12 01:21:10;;;;;;;9.73;5.73;;;19.10;79.10;;;;;;4927961;29;20977;-49
2021/08/12 01:23:38;;;;;;;8.03;6.23;;;19.10;79.20;;;;;;4928703;29;20467;-49
2021/08/12 01:26:07;;;;;;;6.10;5.43;;;19.10;79.20;;;;;;4928289;29;20464;-49
2021/08/12 01:28:53;;;;;;;7.10;5.47;;;19.00;79.20;;;;;;4926845;29;20502;-49
2021/08/12 01:31:32;;;;;;;8.27;5.30;;;19.00;79.40;;;;;;4928243;29;20809;-49
2021/08/12 01:34:08;;;;;;;8.10;5.93;;;19.00;79.40;;;;;;4930173;29;20498;-49
2021/08/12 01:36:37;;;;;;;6.60;5.80;;;19.00;79.50;;;;;;4929729;29;20431;-49
2021/08/12 01:39:07;;;;;;;6.33;5.60;;;19.00;79.60;;;;;;4913104;29;20465;-49
2021/08/12 01:41:36;;;;;;;8.90;6.47;;;19.00;79.70;;;;;;4930787;29;20470;-49
2021/08/12 01:44:04;;;;;;;10.47;5.80;;;19.00;79.80;;;;;;4926617;29;20464;-49
2021/08/12 01:46:32;;;;;;;8.97;6.10;;;19.00;79.90;;;;;;4927818;29;20552;-49
2021/08/12 01:49:02;;;;;;;12.47;7.73;;;19.00;80.00;;;;;;4929803;29;20497;-49
2021/08/12 01:51:31;;;;;;;7.40;6.20;;;19.00;80.10;;;;;;4928247;29;20865;-49
2021/08/12 01:54:00;;;;;;;8.30;7.37;;;19.00;80.10;;;;;;4927821;29;20978;-49
2021/08/12 01:56:28;;;;;;;7.97;6.40;;;19.00;80.10;;;;;;4929715;29;20456;-48
2021/08/12 01:58:58;;;;;;;8.93;6.70;;;19.00;80.00;;;;;;4926754;29;20467;-48
2021/08/12 02:01:27;;;;;;;7.07;6.30;;;19.00;80.10;;;;;;4928720;29;20501;-49
2021/08/12 02:03:58;;;;;;;7.83;6.00;;;19.00;80.10;;;;;;4929207;29;20470;-49
2021/08/12 02:06:33;;;;;;;12.50;6.20;;;19.00;80.10;;;;;;4930683;29;20464;-49
2021/08/12 02:09:00;;;;;;;8.80;6.70;;;19.00;80.10;;;;;;4928715;29;20680;-49
2021/08/12 02:11:26;;;;;;;7.33;6.60;;;19.00;80.10;;;;;;4928815;29;20460;-49
2021/08/12 02:13:53;;;;;;;11.57;6.70;;;18.90;80.10;;;;;;4928386;29;20452;-49
2021/08/12 02:16:20;;;;;;;7.90;6.30;;;18.90;80.10;;;;;;4925474;29;20460;-48
2021/08/12 02:18:47;;;;;;;7.70;6.50;;;18.90;80.10;;;;;;4928651;29;20675;-48
2021/08/12 02:21:36;;;;;;;8.40;6.53;;;18.90;80.20;;;;;;4917193;29;20817;-48
2021/08/12 02:24:09;;;;;;;6.17;5.57;;;18.80;80.30;;;;;;4928661;29;20476;-48
2021/08/12 02:26:54;;;;;;;8.97;7.43;;;18.80;80.40;;;;;;4929320;29;20460;-49
2021/08/12 02:29:21;;;;;;;9.93;6.37;;;18.80;80.50;;;;;;4925882;29;20475;-49
2021/08/12 02:31:49;;;;;;;8.90;5.67;;;18.90;80.70;;;;;;4930509;29;20495;-49
2021/08/12 02:34:17;;;;;;;7.83;6.53;;;18.90;80.60;;;;;;4927244;29;20474;-49
2021/08/12 02:36:45;;;;;;;7.80;6.37;;;18.80;80.70;;;;;;4926955;29;20470;-49
2021/08/12 02:39:13;;;;;;;8.37;7.00;;;18.80;80.70;;;;;;4928555;29;20476;-50
2021/08/12 02:41:41;;;;;;;6.90;6.10;;;18.80;80.80;;;;;;4930176;29;20579;-50
2021/08/12 02:44:11;;;;;;;11.97;8.30;;;18.80;80.90;;;;;;4928076;29;21005;-51
2021/08/12 02:46:39;;;;;;;7.63;6.87;;;18.70;80.90;;;;;;4926232;29;20468;-50
2021/08/12 02:49:07;;;;;;;7.30;6.60;;;18.70;81.00;;;;;;4927146;29;20500;-50
2021/08/12 02:51:35;;;;;;;10.97;7.33;;;18.70;81.00;;;;;;4930012;29;20457;-49
2021/08/12 02:54:05;;;;;;;12.77;7.40;;;18.70;81.00;;;;;;4910258;29;20463;-49
2021/08/12 02:56:33;;;;;;;6.93;6.17;;;18.70;81.00;;;;;;4928790;29;21032;-49
2021/08/12 02:59:00;;;;;;;7.97;7.17;;;18.70;81.00;;;;;;4929462;29;20496;-49
2021/08/12 03:01:27;;;;;;;10.90;8.83;;;18.60;81.00;;;;;;4924871;29;20500;-49
2021/08/12 03:03:56;;;;;;;8.37;6.50;;;18.60;81.00;;;;;;4929756;29;20464;-49
2021/08/12 03:06:24;;;;;;;8.73;7.00;;;18.60;81.00;;;;;;4929077;29;20559;-49
2021/08/12 03:08:53;;;;;;;7.57;6.70;;;18.60;80.80;;;;;;4929322;29;20498;-49
2021/08/12 03:11:20;;;;;;;10.23;7.80;;;18.60;80.90;;;;;;4926266;29;20512;-49
2021/08/12 03:13:49;;;;;;;9.10;6.80;;;18.60;81.00;;;;;;4926688;29;20474;-49
2021/08/12 03:16:17;;;;;;;8.87;6.80;;;18.50;81.10;;;;;;4927903;29;20833;-49
2021/08/12 03:18:44;;;;;;;8.93;6.33;;;18.50;81.00;;;;;;4928476;29;20475;-49
2021/08/12 03:21:12;;;;;;;7.27;6.23;;;18.50;81.00;;;;;;4928521;29;20464;-49
2021/08/12 03:23:40;;;;;;;10.67;7.23;;;18.50;81.00;;;;;;4918111;29;20460;-49
2021/08/12 03:26:07;;;;;;;11.40;6.90;;;18.40;81.10;;;;;;4926971;29;20447;-49
2021/08/12 03:28:34;;;;;;;8.73;6.83;;;18.40;81.10;;;;;;4926668;29;20496;-49
2021/08/12 03:31:02;;;;;;;7.40;6.70;;;18.40;81.10;;;;;;4913049;29;20460;-49
2021/08/12 03:33:29;;;;;;;8.57;5.87;;;18.40;81.00;;;;;;4928575;29;20464;-49
2021/08/12 03:35:57;;;;;;;8.40;6.67;;;18.30;81.00;;;;;;4923925;29;20459;-49
2021/08/12 03:38:24;;;;;;;6.47;5.73;;;18.30;81.00;;;;;;4909764;29;20833;-49
2021/08/12 03:40:51;;;;;;;8.60;5.90;;;18.30;81.00;;;;;;4930087;29;20530;-50
2021/08/12 03:43:18;;;;;;;9.73;6.90;;;18.20;81.00;;;;;;4931860;29;20464;-50
2021/08/12 03:45:45;;;;;;;7.97;6.17;;;18.20;81.10;;;;;;4927809;29;20471;-50
2021/08/12 03:48:12;;;;;;;8.27;6.57;;;18.20;81.20;;;;;;4930960;29;20758;-50
2021/08/12 03:50:38;;;;;;;9.97;6.60;;;18.20;81.20;;;;;;4914552;29;21027;-50
2021/08/12 03:53:05;;;;;;;8.00;6.07;;;18.20;81.30;;;;;;4915608;29;20829;-50
2021/08/12 03:55:32;;;;;;;9.70;7.17;;;18.20;81.30;;;;;;4927623;29;20464;-50
2021/08/12 03:57:59;;;;;;;9.90;6.67;;;18.10;81.50;;;;;;4931700;29;20985;-50
2021/08/12 04:00:25;;;;;;;6.40;5.47;;;18.10;81.50;;;;;;4928375;29;20499;-50
2021/08/12 04:02:52;;;;;;;9.60;6.57;;;18.10;81.60;;;;;;4929137;29;20479;-50
2021/08/12 04:05:20;;;;;;;9.87;7.50;;;18.00;81.70;;;;;;4931279;29;20951;-50
2021/08/12 04:07:47;;;;;;;7.90;6.67;;;18.10;81.70;;;;;;4930190;29;20504;-50
2021/08/12 04:10:17;;;;;;;9.63;5.97;;;18.00;81.70;;;;;;4929821;29;21032;-50
2021/08/12 04:12:44;;;;;;;10.60;6.50;;;18.00;81.80;;;;;;4931845;29;20975;-50
2021/08/12 04:15:10;;;;;;;9.13;6.83;;;18.00;81.80;;;;;;4911938;29;21034;-50
2021/08/12 04:17:37;;;;;;;8.43;6.57;;;18.00;81.80;;;;;;4931506;29;20471;-50
2021/08/12 04:20:05;;;;;;;8.00;6.10;;;18.00;81.80;;;;;;4926153;29;20470;-50
2021/08/12 04:22:31;;;;;;;8.10;6.10;;;18.00;81.80;;;;;;4916141;29;20460;-50
2021/08/12 04:24:58;;;;;;;7.63;6.87;;;18.00;82.00;;;;;;4932326;29;20957;-50
2021/08/12 04:27:25;;;;;;;15.67;7.20;;;17.90;82.10;;;;;;4931091;29;20815;-50
2021/08/12 04:29:51;;;;;;;7.63;6.67;;;17.90;82.20;;;;;;4931298;29;20515;-50
2021/08/12 04:32:18;;;;;;;9.30;6.67;;;17.90;82.30;;;;;;4929417;29;20471;-50
2021/08/12 04:34:45;;;;;;;9.47;7.00;;;17.90;82.40;;;;;;4927101;29;20489;-50
2021/08/12 04:37:12;;;;;;;8.40;6.30;;;17.90;82.40;;;;;;4930566;29;20523;-50
2021/08/12 04:39:38;;;;;;;7.90;6.70;;;17.90;82.50;;;;;;4914442;29;20468;-50
2021/08/12 04:42:05;;;;;;;9.33;6.10;;;17.90;82.50;;;;;;4927626;29;20528;-50
2021/08/12 04:44:32;;;;;;;7.73;6.60;;;17.90;82.50;;;;;;4930885;29;20993;-50
2021/08/12 04:46:59;;;;;;;9.27;6.40;;;17.90;82.50;;;;;;4922242;29;20460;-50
2021/08/12 04:49:26;;;;;;;9.20;6.57;;;18.00;82.50;;;;;;4928257;29;20488;-50
2021/08/12 04:51:52;;;;;;;8.67;5.87;;;18.00;82.50;;;;;;4928475;29;20511;-50
2021/08/12 04:54:19;;;;;;;8.17;6.00;;;18.00;82.50;;;;;;4931207;29;20462;-50
2021/08/12 04:56:46;;;;;;;6.93;6.20;;;18.00;82.50;;;;;;4927936;29;20498;-50
2021/08/12 04:59:13;;;;;;;9.17;7.07;;;18.00;82.60;;;;;;4929846;29;20471;-50
2021/08/12 05:01:40;;;;;;;10.50;7.07;;;18.10;82.60;;;;;;4927585;29;20513;-50
2021/08/12 05:04:06;;;;;;;7.97;6.13;;;18.10;82.60;;;;;;4930523;29;20511;-50
2021/08/12 05:06:34;;;;;;;7.30;6.03;;;18.10;82.60;;;;;;4911684;29;20472;-50
2021/08/12 05:09:00;;;;;;;5.50;5.00;;;18.20;82.50;;;;;;4928326;29;20499;-50
2021/08/12 05:11:27;;;;;;;9.10;6.07;;;18.20;82.50;;;;;;4913119;29;20464;-50
2021/08/12 05:13:54;;;;;;;7.63;6.10;;;18.30;82.40;;;;;;4929410;29;20693;-50
2021/08/12 05:16:21;;;;;;;6.77;5.57;;;18.40;82.30;;;;;;4929785;29;20523;-50
2021/08/12 05:18:48;;;;;;;7.47;5.90;;;18.40;82.40;;;;;;4927744;29;20849;-50
2021/08/12 05:21:15;;;;;;;13.60;6.87;;;18.40;82.30;;;;;;4913985;29;20464;-50
2021/08/12 05:23:42;;;;;;;7.27;5.87;;;18.50;82.00;;;;;;4930408;29;20495;-50
2021/08/12 05:26:09;;;;;;;8.30;6.53;;;18.50;81.80;;;;;;4931737;29;20463;-50
2021/08/12 05:28:35;;;;;;;8.80;6.37;;;18.60;81.80;;;;;;4931452;29;20526;-50
2021/08/12 05:31:03;;;;;;;8.00;6.30;;;18.60;81.70;;;;;;4930570;29;20519;-50
2021/08/12 05:33:30;;;;;;;11.40;6.53;;;18.60;81.70;;;;;;4925954;29;20460;-50
2021/08/12 05:35:57;;;;;;;9.87;6.70;;;18.70;81.60;;;;;;4928626;29;20475;-50
2021/08/12 05:38:24;;;;;;;8.43;6.50;;;18.70;81.50;;;;;;4927256;29;20832;-50
2021/08/12 05:40:50;;;;;;;8.20;6.13;;;18.80;81.50;;;;;;4930292;29;20467;-50
2021/08/12 05:43:17;;;;;;;11.10;6.67;;;18.80;81.50;;;;;;4915938;29;20471;-50
2021/08/12 05:45:44;;;;;;;7.67;6.10;;;18.80;81.50;;;;;;4926948;29;20510;-50
2021/08/12 05:48:10;;;;;;;9.23;7.17;;;18.90;81.40;;;;;;4927094;29;20488;-50
2021/08/12 05:50:43;;;;;;;8.07;6.33;;;18.90;81.30;;;;;;4929430;29;20475;-50
2021/08/12 05:53:12;;;;;;;8.60;7.33;;;19.00;81.30;;;;;;4931312;29;21074;-50
2021/08/12 05:55:39;;;;;;;9.23;7.03;;;19.00;81.40;;;;;;4915637;29;20527;-50
2021/08/12 05:58:06;;;;;;;6.70;6.00;;;19.00;81.40;;;;;;4918824;29;20467;-50
2021/08/12 06:00:33;;;;;;;6.80;6.10;;;19.10;81.40;;;;;;4926561;29;20521;-50
2021/08/12 06:03:08;;;;;;;7.20;6.07;;;19.10;81.40;;;;;;4926574;29;20484;-50
2021/08/12 06:05:36;;;;;;;9.83;6.23;;;19.20;81.30;;;;;;4913440;29;20459;-50
2021/08/12 06:08:08;;;;;;;8.97;6.60;;;19.20;81.30;;;;;;4927707;29;20859;-50
2021/08/12 06:10:35;;;;;;;9.40;6.57;;;19.20;81.30;;;;;;4928045;29;20825;-50
2021/08/12 06:13:03;;;;;;;7.70;6.03;;;19.20;81.40;;;;;;4929330;29;20981;-50
2021/08/12 06:15:30;;;;;;;12.50;6.60;;;19.30;81.50;;;;;;4913071;29;20523;-50
2021/08/12 06:17:57;;;;;;;7.00;6.07;;;19.30;81.30;;;;;;4929157;29;20463;-50
2021/08/12 06:20:24;;;;;;;7.90;6.00;;;19.40;81.20;;;;;;4927143;29;20542;-50
2021/08/12 06:22:52;;;;;;;7.53;6.00;;;19.40;81.00;;;;;;4929104;29;20481;-50
2021/08/12 06:25:21;;;;;;;9.83;6.63;;;19.50;80.90;;;;;;4918205;29;20980;-50
2021/08/12 06:27:48;;;;;;;10.20;6.47;;;19.50;80.90;;;;;;4925646;29;20810;-50
2021/08/12 06:30:15;;;;;;;10.20;6.20;;;19.60;80.70;;;;;;4918751;29;20507;-49
2021/08/12 06:32:41;;;;;;;7.30;5.43;;;19.60;80.50;;;;;;4910980;29;20453;-49
2021/08/12 06:35:11;;;;;;;8.90;6.67;;;19.70;80.40;;;;;;4923334;29;20456;-49
2021/08/12 06:37:45;;;;;;;7.43;6.37;;;19.80;80.50;;;;;;4929826;29;20456;-49
2021/08/12 06:40:21;;;;;;;10.60;6.50;;;19.90;80.20;;;;;;4926322;29;20937;-49
2021/08/12 06:42:49;;;;;;;8.30;6.10;;;19.90;79.70;;;;;;4929735;29;20474;-49
2021/08/12 06:45:19;;;;;;;8.00;5.60;;;20.00;79.40;;;;;;4916976;29;20464;-50
2021/08/12 06:47:47;;;;;;;8.90;6.83;;;20.10;79.20;;;;;;4929875;29;20833;-50
2021/08/12 06:50:16;;;;;;;8.53;6.10;;;20.10;79.20;;;;;;4925001;29;20856;-51
2021/08/12 06:52:43;;;;;;;7.03;6.33;;;20.20;78.70;;;;;;4928058;29;20472;-50
2021/08/12 06:55:11;;;;;;;7.97;5.77;;;20.30;78.10;;;;;;4930128;29;20464;-51
2021/08/12 06:57:38;;;;;;;10.90;5.60;;;20.40;77.90;;;;;;4913925;29;20838;-50
2021/08/12 07:00:06;;;;;;;6.13;5.50;;;20.50;77.90;;;;;;4929048;29;20701;-50
2021/08/12 07:02:33;;;;;;;8.93;6.70;;;20.60;77.80;;;;;;4928781;29;20464;-50
2021/08/12 07:05:00;;;;;;;7.37;5.60;;;20.70;77.30;;;;;;4932081;29;20466;-50
2021/08/12 07:07:26;;;;;;;8.40;5.50;;;20.80;77.10;;;;;;4926747;29;20476;-50
2021/08/12 07:09:53;;;;;;;7.90;5.20;;;20.90;76.80;;;;;;4929934;29;20488;-50
2021/08/12 07:12:20;;;;;;;8.50;5.20;;;21.10;75.80;;;;;;4928343;29;20462;-50
2021/08/12 07:14:47;;;;;;;6.20;5.17;;;21.20;75.50;;;;;;4914661;29;20950;-50
2021/08/12 07:17:14;;;;;;;8.27;5.40;;;21.40;75.20;;;;;;4913678;29;20464;-50
2021/08/12 07:19:41;;;;;;;9.40;4.80;;;21.50;74.70;;;;;;4933888;29;20459;-50
2021/08/12 07:22:08;;;;;;;6.80;5.00;;;21.70;74.40;;;;;;4932011;29;20463;-50
2021/08/12 07:24:34;;;;;;;6.20;4.93;;;21.90;73.80;;;;;;4930611;29;20456;-50
2021/08/12 07:27:01;;;;;;;6.03;4.93;;;22.00;73.80;;;;;;4932165;29;20459;-50
2021/08/12 07:29:28;;;;;;;7.40;4.60;;;22.10;73.70;;;;;;4930017;29;20487;-50
2021/08/12 07:31:55;;;;;;;11.77;5.90;;;22.20;73.20;;;;;;4931888;29;20459;-50
2021/08/12 07:34:22;;;;;;;14.17;5.67;;;22.30;72.50;;;;;;4932097;29;20447;-50
2021/08/12 07:36:49;;;;;;;6.83;5.50;;;22.50;72.30;;;;;;4931065;29;20470;-50
2021/08/12 07:39:16;;;;;;;7.80;5.40;;;22.60;71.60;;;;;;4928667;29;20824;-50
2021/08/12 07:41:43;;;;;;;7.00;4.83;;;22.80;70.30;;;;;;4930949;29;20467;-50
2021/08/12 07:44:10;;;;;;;6.37;4.73;;;23.00;69.70;;;;;;4937175;29;20526;-50
2021/08/12 07:46:37;;;;;;;6.37;5.70;;;23.10;69.30;;;;;;4932309;29;20946;-50
2021/08/12 07:49:06;;;;;;;7.83;4.97;;;23.30;68.80;;;;;;4935925;29;20530;-50
2021/08/12 07:51:34;;;;;;;6.03;4.80;;;23.40;68.30;;;;;;4929914;29;20455;-50
2021/08/12 07:54:01;;;;;;;6.40;4.40;;;23.70;67.40;;;;;;4934795;29;20483;-50
2021/08/12 07:56:27;;;;;;;7.10;4.87;;;23.80;66.80;;;;;;4931848;29;20462;-50
2021/08/12 07:58:54;;;;;;;8.70;4.60;;;23.90;66.30;;;;;;4929918;29;20494;-49
2021/08/12 08:01:21;;;;;;;6.83;5.00;;;24.00;65.70;;;;;;4926476;29;20486;-49
2021/08/12 08:03:48;;;;;;;6.60;4.90;;;24.10;65.40;;;;;;4934020;29;21039;-49
2021/08/12 08:06:15;;;;;;;8.87;5.80;;;24.20;65.60;;;;;;4928560;29;20828;-49
2021/08/12 08:08:41;;;;;;;8.07;4.97;;;24.30;65.70;;;;;;4931570;29;21022;-50
2021/08/12 08:11:08;;;;;;;6.70;4.53;;;24.40;65.60;;;;;;4931434;29;21003;-49
2021/08/12 08:13:35;;;;;;;10.70;5.17;;;24.60;65.40;;;;;;4932287;29;20462;-50
2021/08/12 08:16:02;;;;;;;8.97;5.43;;;24.70;65.20;;;;;;4919005;29;20455;-50
2021/08/12 08:18:29;;;;;;;12.10;5.77;;;24.90;64.80;;;;;;4933628;29;20451;-50
2021/08/12 08:20:57;;;;;;;6.50;4.97;;;25.00;63.90;;;;;;4934525;29;20522;-50
2021/08/12 08:23:23;;;;;;;5.30;4.10;;;25.20;63.00;;;;;;4930773;29;20467;-50
2021/08/12 08:25:50;;;;;;;8.50;5.20;;;25.30;62.80;;;;;;4929446;29;20466;-50
2021/08/12 08:28:17;;;;;;;10.60;4.90;;;25.50;62.70;;;;;;4930962;29;20471;-50
2021/08/12 08:30:44;;;;;;;9.57;5.10;;;25.60;62.50;;;;;;4926386;29;21012;-50
2021/08/12 08:33:11;;;;;;;9.63;5.07;;;25.80;61.90;;;;;;4931656;29;20451;-50
2021/08/12 08:35:38;;;;;;;6.10;5.23;;;25.90;61.30;;;;;;4916467;29;20461;-50
2021/08/12 08:38:05;;;;;;;8.10;5.17;;;26.10;60.90;;;;;;4931321;29;20452;-50
2021/08/12 08:40:34;;;;;;;4.67;4.20;;;26.30;60.50;;;;;;4931932;29;20571;-50
2021/08/12 08:43:02;;;;;;;5.53;4.63;;;26.50;60.10;;;;;;4917844;29;20462;-50
2021/08/12 08:45:30;;;;;;;6.77;4.70;;;26.70;58.90;;;;;;4931303;29;20965;-50
2021/08/12 08:48:02;;;;;;;6.07;4.80;;;26.90;58.10;;;;;;4931386;29;20459;-50
2021/08/12 08:50:32;;;;;;;6.63;4.93;;;27.10;57.90;;;;;;4929135;29;20900;-50
2021/08/12 08:53:00;;;;;;;9.43;4.57;;;27.40;57.60;;;;;;4927988;29;20443;-50
2021/08/12 08:55:27;;;;;;;8.03;5.27;;;27.60;56.90;;;;;;4915933;29;20976;-50
2021/08/12 08:57:55;;;;;;;6.27;5.57;;;27.80;56.50;;;;;;4928272;29;20471;-50
2021/08/12 09:00:23;;;;;;;7.47;5.50;;;27.90;56.10;;;;;;4925999;29;20249;-50
2021/08/12 09:02:51;;;;;;;5.63;4.90;;;27.90;55.90;;;;;;4928338;29;20252;-50
2021/08/12 09:05:18;;;;;;;10.33;5.90;;;27.90;57.20;;;;;;4931284;29;20588;-50
2021/08/12 09:07:45;;;;;;;6.57;4.47;;;27.90;56.80;;;;;;4929593;29;20294;-50
2021/08/12 09:10:14;;;;;;;6.27;5.40;;;27.80;56.50;;;;;;4930316;29;20235;-50
2021/08/12 09:12:42;;;;;;;9.87;5.70;;;27.80;56.80;;;;;;4927844;29;20247;-49
2021/08/12 09:15:10;;;;;;;5.70;4.70;;;27.70;57.90;;;;;;4929337;29;20358;-49
2021/08/12 09:17:37;;;;;;;8.87;4.93;;;27.60;57.60;;;;;;4928985;29;20218;-49
2021/08/12 09:20:14;;;;;;;5.40;4.33;;;27.60;57.40;;;;;;4927421;29;20475;-49
2021/08/12 09:22:50;;;;;;;9.17;5.20;;;27.70;56.90;;;;;;4930105;29;20452;-49
2021/08/12 09:25:27;;;;;;;8.77;5.27;;;28.00;56.60;;;;;;4930238;29;20672;-49
2021/08/12 09:28:25;;;;;;;7.23;4.40;;;28.20;55.80;;;;;;4930480;29;20207;-49
2021/08/12 09:31:01;;;;;;;5.10;4.53;;;28.50;54.70;;;;;;4928689;29;20232;-49
2021/08/12 09:33:40;;;;;;;7.13;5.13;;;28.80;54.40;;;;;;4931561;29;20239;-49
2021/08/12 09:36:23;;;;;;;11.70;6.10;;;28.90;53.70;;;;;;4930786;29;20605;-49
2021/08/12 09:39:13;;;;;;;6.80;5.20;;;29.10;53.70;;;;;;4930194;29;20319;-49
2021/08/12 09:41:48;;;;;;;8.38;5.78;;;29.10;53.20;;;;;;4931900;29;20207;-49
2021/08/12 09:44:51;;;;;;;7.50;5.47;;;29.10;53.50;;;;;;4929782;29;20215;-49
2021/08/12 09:47:24;;;;;;;5.30;4.57;;;29.10;53.30;;;;;;4933021;29;20212;-49
2021/08/12 09:49:52;;;;;;;10.20;5.60;;;29.10;53.70;;;;;;4928597;29;20232;-49
2021/08/12 09:52:34;;;;;;;9.75;5.05;;;29.00;54.30;;;;;;4913634;29;20211;-49
2021/08/12 09:55:04;;;;;;;7.40;5.25;;;29.00;54.30;;;;;;4928778;29;20426;-49
2021/08/12 09:57:42;;;;;;;5.00;4.50;;;29.20;53.80;;;;;;4927694;29;20204;-49
2021/08/12 10:00:11;;;;;;;7.30;4.78;;;29.40;53.00;;;;;;4913848;29;20233;-49
2021/08/12 10:02:38;;;;;;;6.43;5.13;;;29.60;53.20;;;;;;4926327;29;20708;-49
2021/08/12 10:05:11;;;;;;;7.28;5.15;;;29.60;53.40;;;;;;4924657;29;20798;-49
2021/08/12 10:07:49;;;;;;;9.55;5.25;;;29.70;53.50;;;;;;4928692;29;20216;-49
2021/08/12 10:10:24;;;;;;;5.55;4.82;;;29.60;53.50;;;;;;4916167;29;20240;-49
2021/08/12 10:12:58;;;;;;;10.23;5.32;;;29.50;53.40;;;;;;4928692;29;20693;-49
2021/08/12 10:15:30;;;;;;;6.10;5.30;;;29.40;53.00;;;;;;4928178;29;20217;-49
2021/08/12 10:18:01;;;;;;;6.70;5.00;;;29.40;52.70;;;;;;4930859;29;20227;-49
2021/08/12 10:20:33;;;;;;;7.35;5.53;;;29.40;52.50;;;;;;4929778;29;20649;-49
2021/08/12 10:23:02;;;;;;;4.75;4.25;;;29.30;53.00;;;;;;4916206;29;20589;-48
2021/08/12 10:25:29;;;;;;;6.90;4.60;;;29.40;53.80;;;;;;4912553;29;20204;-48
2021/08/12 10:28:00;;;;;;;6.90;5.10;;;29.40;53.80;;;;;;4915508;29;20218;-48
2021/08/12 10:30:28;;;;;;;14.25;4.70;;;29.50;53.60;;;;;;4929919;29;20234;-48
2021/08/12 10:33:06;;;;;;;7.90;4.82;;;29.40;54.10;;;;;;4913215;29;20235;-48
2021/08/12 10:35:35;;;;;;;5.70;4.97;;;29.20;54.70;;;;;;4926770;29;20657;-48
2021/08/12 10:38:03;;;;;;;6.95;5.10;;;29.10;54.40;;;;;;4927873;29;20218;-48
2021/08/12 10:40:32;;;;;;;6.93;4.20;;;28.90;54.90;;;;;;4929314;29;20203;-48
2021/08/12 10:43:00;;;;;;;10.50;5.77;;;28.80;55.30;;;;;;4927617;29;20208;-48
2021/08/12 10:45:28;;;;;;;6.67;5.13;;;28.70;55.10;;;;;;4927412;29;20724;-48
2021/08/12 10:47:59;;;;;;;5.57;4.97;;;28.60;55.00;;;;;;4926471;29;20208;-48
2021/08/12 10:50:34;;;;;;;6.73;5.30;;;28.60;54.00;;;;;;4926525;29;20239;-48
2021/08/12 10:53:06;;;;;;;7.80;4.93;;;28.50;54.20;;;;;;4913974;29;20223;-48
2021/08/12 10:55:35;;;;;;;10.73;5.93;;;28.50;54.90;;;;;;4927248;29;20657;-48
2021/08/12 11:00:54;;;;;;;7.00;5.63;;;28.40;55.70;;;;;;4924504;29;20276;-48
2021/08/12 11:03:33;;;;;;;10.30;4.90;;;28.40;54.70;;;;;;4913083;29;20211;-49
2021/08/12 11:06:04;;;;;;;6.67;5.37;;;28.40;54.50;;;;;;4924231;29;20211;-49
2021/08/12 11:08:51;;;;;;;7.30;4.47;;;28.30;55.00;;;;;;4925940;29;20688;-48
2021/08/12 11:11:21;;;;;;;7.40;5.13;;;28.30;55.00;;;;;;4928410;29;20231;-48
2021/08/12 11:13:50;;;;;;;6.47;4.83;;;28.30;54.70;;;;;;4926863;29;20220;-48
2021/08/12 11:16:18;;;;;;;5.67;4.83;;;28.20;54.90;;;;;;4927658;29;20212;-48
2021/08/12 11:18:46;;;;;;;7.40;5.37;;;28.20;55.40;;;;;;4914338;29;20208;-49
2021/08/12 11:21:31;;;;;;;7.70;5.50;;;28.10;56.00;;;;;;4914429;29;20212;-49
2021/08/12 11:24:06;;;;;;;9.13;5.97;;;28.10;56.00;;;;;;4930565;29;20218;-49
2021/08/12 11:26:45;;;;;;;8.90;5.27;;;28.00;55.70;;;;;;4930284;29;20984;-49
2021/08/12 11:31:53;;;;;;;8.67;5.77;;;28.00;56.30;;;;;;4925791;29;20211;-49
2021/08/12 11:34:35;;;;;;;7.10;5.10;;;28.00;57.10;;;;;;4924555;29;20763;-49
2021/08/12 11:37:08;;;;;;;9.60;5.43;;;28.00;57.50;;;;;;4925016;29;20219;-49
2021/08/12 11:40:11;;;;;;;8.00;5.23;;;28.00;57.20;;;;;;4926761;29;20220;-49
2021/08/12 11:42:40;;;;;;;6.23;4.47;;;28.00;57.20;;;;;;4929526;29;20560;-49
2021/08/12 11:45:08;;;;;;;6.50;5.30;;;28.00;57.50;;;;;;4909581;29;20562;-49
2021/08/12 11:47:40;;;;;;;7.70;5.33;;;28.00;56.80;;;;;;4926033;29;20231;-49
2021/08/12 11:50:09;;;;;;;6.73;5.50;;;28.00;56.40;;;;;;4916112;29;20235;-49
2021/08/12 11:52:46;;;;;;;6.70;5.03;;;28.00;56.40;;;;;;4927911;29;20208;-49
2021/08/12 11:55:18;;;;;;;6.13;4.87;;;28.10;55.80;;;;;;4912838;29;20215;-49
2021/08/12 11:57:56;;;;;;;6.80;5.83;;;28.10;55.50;;;;;;4929018;29;20572;-49
2021/08/12 12:00:24;;;;;;;6.97;5.27;;;28.10;55.00;;;;;;4927977;29;20235;-49
2021/08/12 12:03:03;;;;;;;8.97;5.47;;;28.20;55.20;;;;;;4929870;29;20234;-49
2021/08/12 12:05:33;;;;;;;9.20;5.07;;;28.20;56.00;;;;;;4929012;29;20203;-48
2021/08/12 12:08:05;;;;;;;10.17;5.43;;;28.30;55.90;;;;;;4935589;29;20220;-48
2021/08/12 12:10:42;;;;;;;6.80;4.73;;;28.30;55.30;;;;;;4935195;29;20259;-49
2021/08/12 12:13:13;;;;;;;7.57;4.97;;;28.40;55.70;;;;;;4918042;29;20207;-49
2021/08/12 12:15:43;;;;;;;7.73;5.13;;;28.50;55.50;;;;;;4927581;29;20208;-49
2021/08/12 12:18:11;;;;;;;5.90;5.17;;;28.60;55.40;;;;;;4897625;29;20681;-49
2021/08/12 12:20:40;;;;;;;6.00;4.90;;;28.70;54.40;;;;;;4931029;29;20224;-49
2021/08/12 12:23:09;;;;;;;7.57;4.70;;;28.80;54.30;;;;;;4928975;29;20589;-49
2021/08/12 12:25:38;;;;;;;6.53;5.23;;;28.80;53.90;;;;;;4928779;29;20688;-49
2021/08/12 12:28:06;;;;;;;7.20;5.70;;;28.80;54.20;;;;;;4916576;29;20212;-50
2021/08/12 12:30:35;;;;;;;6.67;5.30;;;28.90;53.60;;;;;;4929739;29;20242;-49
2021/08/12 12:33:10;;;;;;;6.83;5.13;;;28.90;54.30;;;;;;4929190;29;20205;-49
2021/08/12 12:35:39;;;;;;;7.03;5.83;;;28.80;55.00;;;;;;4926694;29;20222;-49
2021/08/12 12:38:09;;;;;;;9.70;5.20;;;28.80;54.30;;;;;;4931483;29;20223;-49
2021/08/12 12:40:38;;;;;;;7.80;5.93;;;28.80;54.00;;;;;;4932599;29;20219;-48
2021/08/12 12:43:06;;;;;;;8.07;5.77;;;28.80;54.40;;;;;;4932158;29;20207;-49
2021/08/12 12:45:53;;;;;;;6.93;5.37;;;28.80;54.40;;;;;;4930796;29;20222;-49
2021/08/12 12:48:46;;;;;;;6.77;5.00;;;28.70;54.10;;;;;;4930503;29;20211;-49
2021/08/12 12:51:24;;;;;;;8.50;5.20;;;28.60;54.30;;;;;;4925817;29;20738;-49
2021/08/12 12:53:51;;;;;;;10.60;5.40;;;28.60;55.20;;;;;;4929203;29;20211;-49
2021/08/12 12:56:23;;;;;;;7.93;5.70;;;28.60;55.50;;;;;;4914990;29;20603;-49
2021/08/12 12:58:51;;;;;;;7.03;5.30;;;28.70;55.50;;;;;;4933083;29;20402;-49
2021/08/12 13:01:23;;;;;;;9.85;5.55;;;28.70;55.20;;;;;;4927606;29;20246;-49
2021/08/12 13:03:58;;;;;;;8.37;5.17;;;28.80;54.10;;;;;;4925556;29;20216;-49